Terminal Aerodrome Forecast
Issued by NWS

Home | Current Version | Previous Version | Text Only | Print | Product List | Glossary Off
Versions: 1 2 3 4 5 6 7 8 9 10 11 12 13 14 15 16 17 18 19 20 21

853
FTUS42 KMHX 220548
TAFOAJ
TAF
KOAJ 220548Z 2206/2306 22007KT 3SM BR BKN007
     FM220900 23005KT 1SM BR BKN005
     FM221300 VRB04KT 3SM -SHRA BR OVC003
     FM221600 VRB04KT P6SM -SHRA BKN007
     FM221700 20005KT P6SM -SHRA BKN007
     FM230000 16006KT 3SM SHRA BR VCTS OVC025CB
      AMD LTD TO CLD VIS AND WIND=

USA.gov is the U.S. government's official web portal to all federal, state and local government web resources and services.